Elkins, NH (03233)

9:27 AM EDT on August 28, 2016 (GMT -0400)
Sparrowhawk | | Change Station

Elev 879 ft 43.43 °N, 71.93 °W | Updated 58 seconds ago

Scattered Clouds
Scattered Clouds
67.3 °F
Feels Like 67.3 °F
N
0.0
Wind Variable Wind from ESE

Today
High -- | Low -- °F
--% Chance of Precip.
Yesterday
High -- | Low -- °F
Precip. -- in
Pressure 30.27 in
Visibility 10.0 miles
Clouds Scattered Clouds 100 ft
Dew Point 65 °F
Humidity 93%
Rainfall 0.00 in
Snow Depth Not available.
6:07 AM 7:29 PM
Waning Crescent, 16% visible
SPECI KLEB 281301Z 00000KT 10SM SCT001 19/16 A3027 RMK AO2 T01890161
Pressure 30.27 in
Visibility 10.0 miles
Clouds Scattered Clouds 100 ft
Dew Point 65 °F
Humidity 93%
Rainfall 0.00 in
Snow Depth Not available.
6:07 AM 7:29 PM
Waning Crescent, 16% visible
SPECI KLEB 281301Z 00000KT 10SM SCT001 19/16 A3027 RMK AO2 T01890161

10-Day Weather Forecast

Almanac

Astronomy

Aug. 28, 2016 Rise Set
Actual Time
Civil Twilight
Nautical Twilight
Astronomical Twilight
Moon
Length of Visible Light
Length of Day
Tomorrow will be .
, % of the Moon is Illuminated

Today's Extremes

State Highs State Lows

Community

WunderPhotos

Upload Photos

1,935,559 photos uploaded!

WunderBlog® & News

Nearby

Air Quality

  Air Quality AQ Index Pollutant
Not available.

Snow Depth

Station Depth Elevation

Earthquake Activity

City Distance Mag. Time & Date
Minimum magnitude displayed is 2.5.

Coastal Water Temperatures

Place Temperature

Stations

Nearby Weather Stations

Station Location Temp. Windchill Dew Point Humidity Wind Precip. Elev Updated Type
                   

Watches & Warnings

There are currently no watches in effect.